sensor_id;sensor_type;location;lat;lon;timestamp;P1;durP1;ratioP1;P2;durP2;ratioP2
21663;SDS011;10993;52.510;13.456;2024-03-08T00:03:27;32.43;;;13.70;;
21663;SDS011;10993;52.510;13.456;2024-03-08T00:08:28;32.50;;;14.30;;
21663;SDS011;10993;52.510;13.456;2024-03-08T00:13:32;29.73;;;13.53;;
21663;SDS011;10993;52.510;13.456;2024-03-08T00:18:32;33.37;;;14.97;;
21663;SDS011;10993;52.510;13.456;2024-03-08T00:23:32;30.83;;;14.80;;
21663;SDS011;10993;52.510;13.456;2024-03-08T00:28:34;27.97;;;13.37;;
21663;SDS011;10993;52.510;13.456;2024-03-08T00:33:35;32.10;;;14.47;;
21663;SDS011;10993;52.510;13.456;2024-03-08T00:38:35;31.20;;;13.57;;
21663;SDS011;10993;52.510;13.456;2024-03-08T00:43:36;29.63;;;14.40;;
21663;SDS011;10993;52.510;13.456;2024-03-08T00:48:37;28.77;;;13.70;;
21663;SDS011;10993;52.510;13.456;2024-03-08T00:53:37;33.70;;;14.10;;
21663;SDS011;10993;52.510;13.456;2024-03-08T00:58:39;30.93;;;14.00;;
21663;SDS011;10993;52.510;13.456;2024-03-08T01:03:40;28.20;;;13.53;;
21663;SDS011;10993;52.510;13.456;2024-03-08T01:08:41;30.07;;;13.47;;
21663;SDS011;10993;52.510;13.456;2024-03-08T01:13:43;29.73;;;14.20;;
21663;SDS011;10993;52.510;13.456;2024-03-08T01:18:43;27.03;;;13.00;;
21663;SDS011;10993;52.510;13.456;2024-03-08T01:23:44;31.03;;;14.90;;
21663;SDS011;10993;52.510;13.456;2024-03-08T01:28:45;31.40;;;13.60;;
21663;SDS011;10993;52.510;13.456;2024-03-08T01:33:46;33.03;;;14.23;;
21663;SDS011;10993;52.510;13.456;2024-03-08T01:38:46;29.27;;;14.73;;
21663;SDS011;10993;52.510;13.456;2024-03-08T01:43:47;29.57;;;14.60;;
21663;SDS011;10993;52.510;13.456;2024-03-08T01:48:50;32.53;;;14.37;;
21663;SDS011;10993;52.510;13.456;2024-03-08T01:53:50;30.83;;;13.97;;
21663;SDS011;10993;52.510;13.456;2024-03-08T01:58:52;30.30;;;13.97;;
21663;SDS011;10993;52.510;13.456;2024-03-08T02:03:54;28.30;;;13.27;;
21663;SDS011;10993;52.510;13.456;2024-03-08T02:08:55;28.27;;;13.73;;
21663;SDS011;10993;52.510;13.456;2024-03-08T02:13:56;33.67;;;14.87;;
21663;SDS011;10993;52.510;13.456;2024-03-08T02:18:57;30.97;;;14.13;;
21663;SDS011;10993;52.510;13.456;2024-03-08T02:23:58;29.10;;;14.37;;
21663;SDS011;10993;52.510;13.456;2024-03-08T02:28:59;26.00;;;13.17;;
21663;SDS011;10993;52.510;13.456;2024-03-08T02:33:59;27.80;;;13.90;;
21663;SDS011;10993;52.510;13.456;2024-03-08T02:39:01;31.43;;;14.67;;
21663;SDS011;10993;52.510;13.456;2024-03-08T02:44:01;31.30;;;13.87;;
21663;SDS011;10993;52.510;13.456;2024-03-08T02:49:02;29.27;;;13.57;;
21663;SDS011;10993;52.510;13.456;2024-03-08T02:54:04;28.93;;;14.27;;
21663;SDS011;10993;52.510;13.456;2024-03-08T02:59:04;28.30;;;14.20;;
21663;SDS011;10993;52.510;13.456;2024-03-08T03:10:03;31.00;;;14.30;;
21663;SDS011;10993;52.510;13.456;2024-03-08T03:15:04;32.73;;;13.97;;
21663;SDS011;10993;52.510;13.456;2024-03-08T03:20:07;31.53;;;14.40;;
21663;SDS011;10993;52.510;13.456;2024-03-08T03:25:14;30.60;;;15.77;;
21663;SDS011;10993;52.510;13.456;2024-03-08T03:30:14;32.60;;;15.07;;
21663;SDS011;10993;52.510;13.456;2024-03-08T03:35:21;37.23;;;15.30;;
21663;SDS011;10993;52.510;13.456;2024-03-08T03:40:23;37.23;;;15.40;;
21663;SDS011;10993;52.510;13.456;2024-03-08T03:45:25;31.33;;;15.47;;
21663;SDS011;10993;52.510;13.456;2024-03-08T03:50:26;37.57;;;15.57;;
21663;SDS011;10993;52.510;13.456;2024-03-08T03:55:27;32.83;;;15.07;;
21663;SDS011;10993;52.510;13.456;2024-03-08T04:00:28;37.03;;;15.70;;
21663;SDS011;10993;52.510;13.456;2024-03-08T04:05:28;32.97;;;15.07;;
21663;SDS011;10993;52.510;13.456;2024-03-08T04:10:30;34.70;;;14.83;;
21663;SDS011;10993;52.510;13.456;2024-03-08T04:15:30;36.23;;;16.57;;
21663;SDS011;10993;52.510;13.456;2024-03-08T04:20:31;32.43;;;15.87;;
21663;SDS011;10993;52.510;13.456;2024-03-08T04:25:32;37.37;;;17.17;;
21663;SDS011;10993;52.510;13.456;2024-03-08T04:30:33;33.10;;;15.60;;
21663;SDS011;10993;52.510;13.456;2024-03-08T04:35:33;34.17;;;16.40;;
21663;SDS011;10993;52.510;13.456;2024-03-08T04:40:35;35.97;;;16.10;;
21663;SDS011;10993;52.510;13.456;2024-03-08T04:45:35;33.70;;;15.70;;
21663;SDS011;10993;52.510;13.456;2024-03-08T04:50:36;33.97;;;15.67;;
21663;SDS011;10993;52.510;13.456;2024-03-08T04:55:39;39.27;;;16.90;;
21663;SDS011;10993;52.510;13.456;2024-03-08T05:00:39;36.53;;;15.47;;
21663;SDS011;10993;52.510;13.456;2024-03-08T05:05:40;38.33;;;17.27;;
21663;SDS011;10993;52.510;13.456;2024-03-08T05:10:41;39.77;;;17.23;;
21663;SDS011;10993;52.510;13.456;2024-03-08T05:15:42;36.33;;;16.50;;
21663;SDS011;10993;52.510;13.456;2024-03-08T05:20:42;35.23;;;15.80;;
21663;SDS011;10993;52.510;13.456;2024-03-08T05:25:44;37.00;;;17.07;;
21663;SDS011;10993;52.510;13.456;2024-03-08T05:30:44;34.97;;;16.37;;
21663;SDS011;10993;52.510;13.456;2024-03-08T05:35:44;41.47;;;17.80;;
21663;SDS011;10993;52.510;13.456;2024-03-08T05:40:46;40.10;;;17.63;;
21663;SDS011;10993;52.510;13.456;2024-03-08T05:45:46;36.23;;;16.63;;
21663;SDS011;10993;52.510;13.456;2024-03-08T05:50:47;40.03;;;17.88;;
21663;SDS011;10993;52.510;13.456;2024-03-08T05:55:48;47.73;;;18.17;;
21663;SDS011;10993;52.510;13.456;2024-03-08T06:00:49;38.37;;;17.77;;
21663;SDS011;10993;52.510;13.456;2024-03-08T06:05:50;40.63;;;18.67;;
21663;SDS011;10993;52.510;13.456;2024-03-08T06:10:51;40.83;;;18.73;;
21663;SDS011;10993;52.510;13.456;2024-03-08T06:15:52;40.47;;;18.90;;
21663;SDS011;10993;52.510;13.456;2024-03-08T06:20:53;34.43;;;18.53;;
21663;SDS011;10993;52.510;13.456;2024-03-08T06:25:54;38.27;;;17.17;;
21663;SDS011;10993;52.510;13.456;2024-03-08T06:30:55;36.73;;;17.63;;
21663;SDS011;10993;52.510;13.456;2024-03-08T06:35:55;35.50;;;18.67;;
21663;SDS011;10993;52.510;13.456;2024-03-08T06:40:59;38.40;;;18.90;;
21663;SDS011;10993;52.510;13.456;2024-03-08T06:46:03;34.03;;;17.30;;
21663;SDS011;10993;52.510;13.456;2024-03-08T06:51:04;37.88;;;17.55;;
21663;SDS011;10993;52.510;13.456;2024-03-08T06:56:06;35.90;;;17.52;;
21663;SDS011;10993;52.510;13.456;2024-03-08T07:01:07;38.22;;;19.17;;
21663;SDS011;10993;52.510;13.456;2024-03-08T07:06:13;35.83;;;17.88;;
21663;SDS011;10993;52.510;13.456;2024-03-08T07:11:15;32.17;;;15.38;;
21663;SDS011;10993;52.510;13.456;2024-03-08T07:16:18;34.88;;;17.98;;
21663;SDS011;10993;52.510;13.456;2024-03-08T07:21:18;32.88;;;17.90;;
21663;SDS011;10993;52.510;13.456;2024-03-08T07:26:21;31.25;;;16.67;;
21663;SDS011;10993;52.510;13.456;2024-03-08T07:31:21;33.45;;;17.05;;
21663;SDS011;10993;52.510;13.456;2024-03-08T07:36:31;30.98;;;16.85;;
21663;SDS011;10993;52.510;13.456;2024-03-08T07:41:33;36.03;;;18.33;;
21663;SDS011;10993;52.510;13.456;2024-03-08T07:46:36;32.08;;;17.70;;
21663;SDS011;10993;52.510;13.456;2024-03-08T07:51:37;33.38;;;16.98;;
21663;SDS011;10993;52.510;13.456;2024-03-08T07:56:38;36.25;;;19.73;;
21663;SDS011;10993;52.510;13.456;2024-03-08T08:01:39;37.75;;;20.35;;
21663;SDS011;10993;52.510;13.456;2024-03-08T08:06:39;29.25;;;14.98;;
21663;SDS011;10993;52.510;13.456;2024-03-08T08:11:43;39.10;;;17.95;;
21663;SDS011;10993;52.510;13.456;2024-03-08T08:16:43;31.05;;;16.58;;
21663;SDS011;10993;52.510;13.456;2024-03-08T08:21:45;31.23;;;17.63;;
21663;SDS011;10993;52.510;13.456;2024-03-08T08:26:47;34.45;;;17.30;;
21663;SDS011;10993;52.510;13.456;2024-03-08T08:31:47;31.15;;;16.92;;
21663;SDS011;10993;52.510;13.456;2024-03-08T08:36:49;32.72;;;15.60;;
21663;SDS011;10993;52.510;13.456;2024-03-08T08:41:51;31.02;;;16.55;;
21663;SDS011;10993;52.510;13.456;2024-03-08T08:46:51;28.73;;;15.48;;
21663;SDS011;10993;52.510;13.456;2024-03-08T08:51:52;26.90;;;15.00;;
21663;SDS011;10993;52.510;13.456;2024-03-08T08:56:54;31.33;;;15.85;;
21663;SDS011;10993;52.510;13.456;2024-03-08T09:01:55;32.22;;;17.50;;
21663;SDS011;10993;52.510;13.456;2024-03-08T09:06:55;32.35;;;15.50;;
21663;SDS011;10993;52.510;13.456;2024-03-08T09:11:58;31.65;;;15.80;;
21663;SDS011;10993;52.510;13.456;2024-03-08T09:16:58;32.38;;;17.10;;
21663;SDS011;10993;52.510;13.456;2024-03-08T09:21:58;29.00;;;16.40;;
21663;SDS011;10993;52.510;13.456;2024-03-08T09:27:00;31.52;;;16.30;;
21663;SDS011;10993;52.510;13.456;2024-03-08T09:32:00;27.45;;;15.63;;
21663;SDS011;10993;52.510;13.456;2024-03-08T09:37:01;27.95;;;15.55;;
21663;SDS011;10993;52.510;13.456;2024-03-08T09:42:05;27.92;;;15.20;;
21663;SDS011;10993;52.510;13.456;2024-03-08T09:47:06;28.48;;;14.90;;
21663;SDS011;10993;52.510;13.456;2024-03-08T09:52:07;26.20;;;14.38;;
21663;SDS011;10993;52.510;13.456;2024-03-08T09:57:09;34.80;;;16.15;;
21663;SDS011;10993;52.510;13.456;2024-03-08T10:02:12;27.52;;;14.63;;
21663;SDS011;10993;52.510;13.456;2024-03-08T10:07:15;29.33;;;14.75;;
21663;SDS011;10993;52.510;13.456;2024-03-08T10:12:16;29.92;;;15.25;;
21663;SDS011;10993;52.510;13.456;2024-03-08T10:17:17;25.75;;;14.65;;
21663;SDS011;10993;52.510;13.456;2024-03-08T10:22:19;29.48;;;14.63;;
21663;SDS011;10993;52.510;13.456;2024-03-08T10:27:21;25.40;;;14.20;;
21663;SDS011;10993;52.510;13.456;2024-03-08T10:32:21;26.58;;;12.18;;
21663;SDS011;10993;52.510;13.456;2024-03-08T10:37:25;22.27;;;11.98;;
21663;SDS011;10993;52.510;13.456;2024-03-08T10:42:29;21.35;;;12.23;;
21663;SDS011;10993;52.510;13.456;2024-03-08T10:47:33;21.95;;;12.60;;
21663;SDS011;10993;52.510;13.456;2024-03-08T10:52:41;22.48;;;11.85;;
21663;SDS011;10993;52.510;13.456;2024-03-08T10:57:42;24.20;;;12.80;;
21663;SDS011;10993;52.510;13.456;2024-03-08T11:02:43;26.52;;;12.80;;
21663;SDS011;10993;52.510;13.456;2024-03-08T11:07:44;24.83;;;13.02;;
21663;SDS011;10993;52.510;13.456;2024-03-08T11:12:46;23.00;;;12.82;;
21663;SDS011;10993;52.510;13.456;2024-03-08T11:17:48;22.45;;;12.57;;
21663;SDS011;10993;52.510;13.456;2024-03-08T11:22:50;20.40;;;12.13;;
21663;SDS011;10993;52.510;13.456;2024-03-08T11:27:53;23.80;;;13.10;;
21663;SDS011;10993;52.510;13.456;2024-03-08T11:33:09;23.20;;;12.95;;
21663;SDS011;10993;52.510;13.456;2024-03-08T11:38:12;27.83;;;13.20;;
21663;SDS011;10993;52.510;13.456;2024-03-08T11:43:15;22.33;;;11.93;;
21663;SDS011;10993;52.510;13.456;2024-03-08T11:48:15;27.13;;;13.75;;
21663;SDS011;10993;52.510;13.456;2024-03-08T11:53:17;22.05;;;12.68;;
21663;SDS011;10993;52.510;13.456;2024-03-08T11:58:18;25.63;;;14.10;;
21663;SDS011;10993;52.510;13.456;2024-03-08T12:03:19;19.70;;;11.75;;
21663;SDS011;10993;52.510;13.456;2024-03-08T12:08:20;21.42;;;13.15;;
21663;SDS011;10993;52.510;13.456;2024-03-08T12:13:22;23.80;;;12.00;;
21663;SDS011;10993;52.510;13.456;2024-03-08T12:18:23;25.48;;;13.43;;
21663;SDS011;10993;52.510;13.456;2024-03-08T12:23:24;25.15;;;12.90;;
21663;SDS011;10993;52.510;13.456;2024-03-08T12:28:25;24.50;;;12.95;;
21663;SDS011;10993;52.510;13.456;2024-03-08T12:33:26;21.45;;;11.80;;
21663;SDS011;10993;52.510;13.456;2024-03-08T12:38:28;19.70;;;10.35;;
21663;SDS011;10993;52.510;13.456;2024-03-08T12:43:29;22.55;;;12.50;;
21663;SDS011;10993;52.510;13.456;2024-03-08T12:48:33;23.30;;;11.90;;
21663;SDS011;10993;52.510;13.456;2024-03-08T12:53:34;23.77;;;12.75;;
21663;SDS011;10993;52.510;13.456;2024-03-08T12:58:35;24.05;;;12.38;;
21663;SDS011;10993;52.510;13.456;2024-03-08T13:03:36;22.67;;;11.85;;
21663;SDS011;10993;52.510;13.456;2024-03-08T13:08:37;21.80;;;12.38;;
21663;SDS011;10993;52.510;13.456;2024-03-08T13:13:42;25.45;;;12.55;;
21663;SDS011;10993;52.510;13.456;2024-03-08T13:18:43;22.35;;;11.52;;
21663;SDS011;10993;52.510;13.456;2024-03-08T13:23:43;22.88;;;11.60;;
21663;SDS011;10993;52.510;13.456;2024-03-08T13:28:47;20.83;;;10.10;;
21663;SDS011;10993;52.510;13.456;2024-03-08T13:33:48;21.30;;;11.55;;
21663;SDS011;10993;52.510;13.456;2024-03-08T13:38:51;20.67;;;11.48;;
21663;SDS011;10993;52.510;13.456;2024-03-08T13:43:52;23.73;;;12.73;;
21663;SDS011;10993;52.510;13.456;2024-03-08T13:48:53;20.05;;;11.13;;
21663;SDS011;10993;52.510;13.456;2024-03-08T13:53:54;19.55;;;10.60;;
21663;SDS011;10993;52.510;13.456;2024-03-08T13:58:56;24.20;;;11.50;;
21663;SDS011;10993;52.510;13.456;2024-03-08T14:03:57;19.65;;;10.60;;
21663;SDS011;10993;52.510;13.456;2024-03-08T14:08:57;21.65;;;10.82;;
21663;SDS011;10993;52.510;13.456;2024-03-08T14:13:59;22.40;;;11.35;;
21663;SDS011;10993;52.510;13.456;2024-03-08T14:18:59;24.38;;;12.15;;
21663;SDS011;10993;52.510;13.456;2024-03-08T14:24:05;21.77;;;11.68;;
21663;SDS011;10993;52.510;13.456;2024-03-08T14:29:08;26.58;;;12.60;;
21663;SDS011;10993;52.510;13.456;2024-03-08T14:34:09;23.30;;;12.40;;
21663;SDS011;10993;52.510;13.456;2024-03-08T14:39:10;23.20;;;11.95;;
21663;SDS011;10993;52.510;13.456;2024-03-08T14:44:12;19.80;;;10.73;;
21663;SDS011;10993;52.510;13.456;2024-03-08T14:49:12;21.63;;;10.15;;
21663;SDS011;10993;52.510;13.456;2024-03-08T14:54:13;21.27;;;11.57;;
21663;SDS011;10993;52.510;13.456;2024-03-08T14:59:14;18.40;;;10.10;;
21663;SDS011;10993;52.510;13.456;2024-03-08T15:04:15;16.95;;;9.63;;
21663;SDS011;10993;52.510;13.456;2024-03-08T15:09:15;16.17;;;8.30;;
21663;SDS011;10993;52.510;13.456;2024-03-08T15:14:20;15.73;;;7.75;;
21663;SDS011;10993;52.510;13.456;2024-03-08T15:19:20;20.13;;;8.68;;
21663;SDS011;10993;52.510;13.456;2024-03-08T15:24:21;20.50;;;9.65;;
21663;SDS011;10993;52.510;13.456;2024-03-08T15:29:23;18.90;;;9.15;;
21663;SDS011;10993;52.510;13.456;2024-03-08T15:34:26;19.88;;;9.13;;
21663;SDS011;10993;52.510;13.456;2024-03-08T15:39:26;18.67;;;9.05;;
21663;SDS011;10993;52.510;13.456;2024-03-08T15:44:28;16.20;;;7.70;;
21663;SDS011;10993;52.510;13.456;2024-03-08T15:49:29;19.55;;;9.73;;
21663;SDS011;10993;52.510;13.456;2024-03-08T15:54:30;18.60;;;8.98;;
21663;SDS011;10993;52.510;13.456;2024-03-08T15:59:31;19.98;;;9.75;;
21663;SDS011;10993;52.510;13.456;2024-03-08T16:04:37;18.67;;;9.65;;
21663;SDS011;10993;52.510;13.456;2024-03-08T16:09:37;19.15;;;9.32;;
21663;SDS011;10993;52.510;13.456;2024-03-08T16:14:39;17.20;;;9.13;;
21663;SDS011;10993;52.510;13.456;2024-03-08T16:19:39;14.73;;;7.68;;
21663;SDS011;10993;52.510;13.456;2024-03-08T16:24:42;19.65;;;9.38;;
21663;SDS011;10993;52.510;13.456;2024-03-08T16:29:44;16.15;;;8.55;;
21663;SDS011;10993;52.510;13.456;2024-03-08T16:34:47;15.90;;;8.55;;
21663;SDS011;10993;52.510;13.456;2024-03-08T16:39:47;18.60;;;9.20;;
21663;SDS011;10993;52.510;13.456;2024-03-08T16:44:49;17.85;;;8.85;;
21663;SDS011;10993;52.510;13.456;2024-03-08T16:49:49;17.90;;;8.98;;
21663;SDS011;10993;52.510;13.456;2024-03-08T16:54:50;18.80;;;9.55;;
21663;SDS011;10993;52.510;13.456;2024-03-08T16:59:51;16.77;;;8.77;;
21663;SDS011;10993;52.510;13.456;2024-03-08T17:04:52;16.60;;;8.88;;
21663;SDS011;10993;52.510;13.456;2024-03-08T17:09:52;17.85;;;8.63;;
21663;SDS011;10993;52.510;13.456;2024-03-08T17:14:54;18.05;;;8.98;;
21663;SDS011;10993;52.510;13.456;2024-03-08T17:19:54;16.40;;;9.15;;
21663;SDS011;10993;52.510;13.456;2024-03-08T17:24:55;18.13;;;9.98;;
21663;SDS011;10993;52.510;13.456;2024-03-08T17:29:56;19.02;;;8.93;;
21663;SDS011;10993;52.510;13.456;2024-03-08T17:34:57;15.77;;;8.48;;
21663;SDS011;10993;52.510;13.456;2024-03-08T17:39:57;21.42;;;9.27;;
21663;SDS011;10993;52.510;13.456;2024-03-08T17:44:59;19.73;;;9.65;;
21663;SDS011;10993;52.510;13.456;2024-03-08T17:50:00;25.45;;;10.40;;
21663;SDS011;10993;52.510;13.456;2024-03-08T17:55:01;22.17;;;9.93;;
21663;SDS011;10993;52.510;13.456;2024-03-08T18:00:06;22.33;;;10.55;;
21663;SDS011;10993;52.510;13.456;2024-03-08T18:05:10;19.75;;;10.43;;
21663;SDS011;10993;52.510;13.456;2024-03-08T18:10:13;41.78;;;14.02;;
21663;SDS011;10993;52.510;13.456;2024-03-08T18:15:21;19.00;;;10.05;;
21663;SDS011;10993;52.510;13.456;2024-03-08T18:20:31;20.55;;;10.82;;
21663;SDS011;10993;52.510;13.456;2024-03-08T18:25:32;23.58;;;11.90;;
21663;SDS011;10993;52.510;13.456;2024-03-08T18:30:35;27.48;;;12.52;;
21663;SDS011;10993;52.510;13.456;2024-03-08T18:35:39;22.80;;;10.95;;
21663;SDS011;10993;52.510;13.456;2024-03-08T18:40:41;21.98;;;10.07;;
21663;SDS011;10993;52.510;13.456;2024-03-08T18:45:47;24.27;;;11.55;;
21663;SDS011;10993;52.510;13.456;2024-03-08T18:50:47;23.90;;;10.57;;
21663;SDS011;10993;52.510;13.456;2024-03-08T18:55:48;23.20;;;10.77;;
21663;SDS011;10993;52.510;13.456;2024-03-08T19:00:50;19.27;;;9.38;;
21663;SDS011;10993;52.510;13.456;2024-03-08T19:05:51;23.58;;;10.43;;
21663;SDS011;10993;52.510;13.456;2024-03-08T19:10:53;19.95;;;10.18;;
21663;SDS011;10993;52.510;13.456;2024-03-08T19:15:58;17.83;;;8.85;;
21663;SDS011;10993;52.510;13.456;2024-03-08T19:20:59;25.17;;;11.93;;
21663;SDS011;10993;52.510;13.456;2024-03-08T19:25:59;24.92;;;11.32;;
21663;SDS011;10993;52.510;13.456;2024-03-08T19:31:01;24.73;;;10.75;;
21663;SDS011;10993;52.510;13.456;2024-03-08T19:36:02;24.58;;;12.43;;
21663;SDS011;10993;52.510;13.456;2024-03-08T19:41:04;23.15;;;11.18;;
21663;SDS011;10993;52.510;13.456;2024-03-08T19:46:07;21.10;;;10.35;;
21663;SDS011;10993;52.510;13.456;2024-03-08T19:51:14;23.92;;;11.40;;
21663;SDS011;10993;52.510;13.456;2024-03-08T19:56:17;23.77;;;12.07;;
21663;SDS011;10993;52.510;13.456;2024-03-08T20:01:18;21.48;;;10.75;;
21663;SDS011;10993;52.510;13.456;2024-03-08T20:06:21;25.35;;;12.43;;
21663;SDS011;10993;52.510;13.456;2024-03-08T20:11:23;23.87;;;12.40;;
21663;SDS011;10993;52.510;13.456;2024-03-08T20:16:25;22.60;;;10.60;;
21663;SDS011;10993;52.510;13.456;2024-03-08T20:21:26;27.20;;;13.85;;
21663;SDS011;10993;52.510;13.456;2024-03-08T20:26:28;24.88;;;12.27;;
21663;SDS011;10993;52.510;13.456;2024-03-08T20:31:29;24.60;;;12.77;;
21663;SDS011;10993;52.510;13.456;2024-03-08T20:36:31;24.92;;;12.48;;
21663;SDS011;10993;52.510;13.456;2024-03-08T20:41:32;25.05;;;12.88;;
21663;SDS011;10993;52.510;13.456;2024-03-08T20:46:34;24.45;;;12.80;;
21663;SDS011;10993;52.510;13.456;2024-03-08T20:51:43;32.70;;;13.32;;
21663;SDS011;10993;52.510;13.456;2024-03-08T20:56:44;26.10;;;11.23;;
21663;SDS011;10993;52.510;13.456;2024-03-08T21:01:50;25.35;;;12.25;;
21663;SDS011;10993;52.510;13.456;2024-03-08T21:06:54;26.48;;;12.85;;
21663;SDS011;10993;52.510;13.456;2024-03-08T21:11:57;28.92;;;13.52;;
21663;SDS011;10993;52.510;13.456;2024-03-08T21:17:00;25.02;;;13.57;;
21663;SDS011;10993;52.510;13.456;2024-03-08T21:22:00;24.60;;;12.57;;
21663;SDS011;10993;52.510;13.456;2024-03-08T21:27:01;27.40;;;13.45;;
21663;SDS011;10993;52.510;13.456;2024-03-08T21:32:03;27.92;;;14.70;;
21663;SDS011;10993;52.510;13.456;2024-03-08T21:37:06;26.90;;;13.55;;
21663;SDS011;10993;52.510;13.456;2024-03-08T21:42:07;33.33;;;13.73;;
21663;SDS011;10993;52.510;13.456;2024-03-08T21:47:09;26.85;;;13.15;;
21663;SDS011;10993;52.510;13.456;2024-03-08T21:52:09;30.30;;;14.32;;
21663;SDS011;10993;52.510;13.456;2024-03-08T21:57:10;29.92;;;14.23;;
21663;SDS011;10993;52.510;13.456;2024-03-08T22:02:11;26.43;;;12.17;;
21663;SDS011;10993;52.510;13.456;2024-03-08T22:07:12;29.63;;;14.60;;
21663;SDS011;10993;52.510;13.456;2024-03-08T22:12:13;35.97;;;15.30;;
21663;SDS011;10993;52.510;13.456;2024-03-08T22:17:14;29.87;;;14.30;;
21663;SDS011;10993;52.510;13.456;2024-03-08T22:22:16;26.03;;;13.70;;
21663;SDS011;10993;52.510;13.456;2024-03-08T22:27:18;30.17;;;15.13;;
21663;SDS011;10993;52.510;13.456;2024-03-08T22:32:19;31.37;;;15.33;;
21663;SDS011;10993;52.510;13.456;2024-03-08T22:37:22;32.97;;;16.00;;
21663;SDS011;10993;52.510;13.456;2024-03-08T22:42:22;30.20;;;15.37;;
21663;SDS011;10993;52.510;13.456;2024-03-08T22:47:26;30.37;;;14.30;;
21663;SDS011;10993;52.510;13.456;2024-03-08T22:52:26;31.20;;;15.77;;
21663;SDS011;10993;52.510;13.456;2024-03-08T22:57:27;31.83;;;15.00;;
21663;SDS011;10993;52.510;13.456;2024-03-08T23:02:28;27.27;;;13.77;;
21663;SDS011;10993;52.510;13.456;2024-03-08T23:07:31;35.20;;;15.47;;
21663;SDS011;10993;52.510;13.456;2024-03-08T23:12:31;33.17;;;15.93;;
21663;SDS011;10993;52.510;13.456;2024-03-08T23:17:35;34.73;;;15.97;;
21663;SDS011;10993;52.510;13.456;2024-03-08T23:22:39;25.97;;;13.83;;
21663;SDS011;10993;52.510;13.456;2024-03-08T23:27:46;39.57;;;16.80;;
21663;SDS011;10993;52.510;13.456;2024-03-08T23:32:50;32.43;;;16.50;;
21663;SDS011;10993;52.510;13.456;2024-03-08T23:37:51;30.57;;;13.90;;
21663;SDS011;10993;52.510;13.456;2024-03-08T23:42:51;34.70;;;16.47;;
21663;SDS011;10993;52.510;13.456;2024-03-08T23:47:54;34.37;;;15.77;;
21663;SDS011;10993;52.510;13.456;2024-03-08T23:52:56;31.03;;;15.23;;
21663;SDS011;10993;52.510;13.456;2024-03-08T23:57:59;33.73;;;16.50;;
